M I D A S
Marine Information and Data Acquisition System
Tripno 2007 of the Zeeleeuw from 2010-09-23 07:11:26 to 2010-09-23 15:15:19
Back to CruiseResearch ActivitiesStationsMapUnderway DataData graphs

EquipmentUnitsComment
TimeDGPSUTC
LatitudeDGPSDM.mWGS84
LongitudeDGPSDM.mWGS84
HeadingGyrodeg 
SOGDGPSknotsSpeed over ground
COGDGPSdegCourse over ground
DepthEcho soundermeters200 kHz
Missing or incorrect values are displayed as -999
Navigation data collected by the RV Zeeleeuw from 2010-09-23 06:49:20 to 2010-09-23 15:23:59
Time Latitude Longitude Heading SOG COG Depth
2010-09-23 06:50:24 51°13.665 2°55.961 125 -999 339 -999
2010-09-23 06:51:25 51°13.664 2°55.961 125 0.1 128 -999
2010-09-23 06:52:25 51°13.664 2°55.96 125 -999 17 -999
2010-09-23 06:53:25 51°13.663 2°55.961 125 0.1 309 -999
2010-09-23 06:54:25 51°13.663 2°55.961 125 0.1 352 -999
2010-09-23 06:55:24 51°13.662 2°55.961 124.9 0.1 134 -999
2010-09-23 06:56:25 51°13.662 2°55.961 124.9 -999 185 -999
2010-09-23 06:57:25 51°13.662 2°55.961 124.9 -999 1 -999
2010-09-23 06:58:25 51°13.663 2°55.961 124.7 -999 96 -999
2010-09-23 06:59:25 51°13.663 2°55.961 124.7 -999 9 -999
2010-09-23 07:00:25 51°13.663 2°55.961 125.1 -999 293 -999
2010-09-23 07:01:25 51°13.663 2°55.961 124.8 -999 109 -999
2010-09-23 07:02:25 51°13.663 2°55.961 125 -999 136 -999
2010-09-23 07:03:25 51°13.662 2°55.961 125.1 0.1 169 -999
2010-09-23 07:04:24 51°13.662 2°55.96 125 -999 104 5
2010-09-23 07:05:22 51°13.662 2°55.96 125.5 -999 244 4.7
2010-09-23 07:06:21 51°13.662 2°55.96 125.2 -999 168 4.8
2010-09-23 07:07:21 51°13.662 2°55.961 125.7 -999 151 4.8
2010-09-23 07:08:21 51°13.663 2°55.96 125.5 -999 297 4.8
2010-09-23 07:09:21 51°13.663 2°55.96 125.4 -999 175 4.9
2010-09-23 07:10:21 51°13.662 2°55.96 125.7 -999 235 4.8
2010-09-23 07:11:21 51°13.663 2°55.961 126.3 -999 211 4.9
2010-09-23 07:12:21 51°13.662 2°55.961 126.3 -999 349 4.9
2010-09-23 07:13:21 51°13.662 2°55.961 126.3 -999 180 4.9
2010-09-23 07:14:21 51°13.662 2°55.961 125.2 0.1 239 4.9
2010-09-23 07:15:21 51°13.661 2°55.961 118.2 0.1 229 4.9
2010-09-23 07:16:21 51°13.662 2°55.956 111.9 0.9 295 5
2010-09-23 07:17:25 51°13.679 2°55.896 108.5 3.2 291 -999
2010-09-23 07:18:25 51°13.693 2°55.804 94.3 3.4 279 -999
2010-09-23 07:19:23 51°13.7 2°55.762 64.1 0.5 354 12.8
2010-09-23 07:20:23 51°13.691 2°55.747 25.2 0.6 234 11.8
2010-09-23 07:21:22 51°13.728 2°55.716 331.8 5.1 329 11.4
2010-09-23 07:22:22 51°13.841 2°55.623 336.2 8.8 335 10.1
2010-09-23 07:23:21 51°13.981 2°55.522 336.5 9.7 336 9.7
2010-09-23 07:24:21 51°14.128 2°55.412 335.1 10.1 334 9.6
2010-09-23 07:25:21 51°14.28 2°55.281 330.2 10.8 329 9.5
2010-09-23 07:26:20 51°14.44 2°55.114 327.6 12.3 325 9.4
2010-09-23 07:27:20 51°14.613 2°54.907 328.8 13.3 324 10.2
2010-09-23 07:28:21 51°14.797 2°54.704 328.2 13.2 324 10.4
2010-09-23 07:29:20 51°14.968 2°54.495 326.9 12.9 322 8.9
2010-09-23 07:30:21 51°15.144 2°54.28 327.3 13.1 322 9.1
2010-09-23 07:31:21 51°15.319 2°54.068 329.6 13.2 324 9.6
2010-09-23 07:32:21 51°15.493 2°53.853 327.7 13.3 322 9.9
2010-09-23 07:33:21 51°15.67 2°53.638 329.5 13.4 323 10.3
2010-09-23 07:34:21 51°15.849 2°53.429 331.8 13.3 326 10.7
2010-09-23 07:35:21 51°16.033 2°53.237 333.6 13.2 327 10.9
2010-09-23 07:36:21 51°16.215 2°53.043 333.5 13.1 326 11
2010-09-23 07:37:21 51°16.403 2°52.866 335.6 13 330 11
2010-09-23 07:38:20 51°16.587 2°52.701 336.3 12.9 333 10.5
2010-09-23 07:39:21 51°16.787 2°52.582 347.4 12.4 343 9.1
2010-09-23 07:40:21 51°16.984 2°52.481 347.3 12.4 343 8.7
2010-09-23 07:41:21 51°17.182 2°52.376 347 12.6 341 9.3
2010-09-23 07:42:21 51°17.381 2°52.268 346.5 12.6 341 9.8
2010-09-23 07:43:21 51°17.58 2°52.161 346.7 12.6 341 10.4
2010-09-23 07:44:21 51°17.777 2°52.053 346.6 12.5 341 10
2010-09-23 07:45:21 51°17.972 2°51.936 346.3 12.7 339 9.6
2010-09-23 07:46:21 51°18.171 2°51.814 346.1 12.8 338 10.2
2010-09-23 07:47:21 51°18.37 2°51.685 346.6 12.9 338 11.2
2010-09-23 07:48:21 51°18.57 2°51.554 346.7 13 338 12.4
2010-09-23 07:49:21 51°18.77 2°51.42 346.4 13 337 13.4
2010-09-23 07:50:21 51°18.968 2°51.282 346.7 13 337 13.9
2010-09-23 07:51:21 51°19.167 2°51.145 346.6 13 337 14.2
2010-09-23 07:52:21 51°19.365 2°51.007 346.7 13.1 337 14
2010-09-23 07:53:21 51°19.564 2°50.871 346.3 13 337 12.5
2010-09-23 07:54:21 51°19.763 2°50.74 346.6 12.9 338 11.7
2010-09-23 07:55:21 51°19.953 2°50.615 346.2 11.9 337 12.9
2010-09-23 07:56:21 51°20.136 2°50.512 354.5 11.5 346 14.9
2010-09-23 07:57:21 51°20.325 2°50.441 356 11.8 347 16.1
2010-09-23 07:58:21 51°20.519 2°50.384 1.1 11.9 352 18.5
2010-09-23 07:59:21 51°20.716 2°50.353 6.1 11.9 357 20.8
2010-09-23 08:00:21 51°20.912 2°50.362 13.7 11.7 5 22.3
2010-09-23 08:01:21 51°21.102 2°50.414 20.7 11.5 13 22.7
2010-09-23 08:02:21 51°21.289 2°50.482 20.5 11.5 12 22.7
2010-09-23 08:03:21 51°21.477 2°50.546 18.1 11.7 10 23
2010-09-23 08:04:21 51°21.669 2°50.6 17 11.7 9 22.9
2010-09-23 08:05:20 51°21.862 2°50.605 2.9 12.1 352 22.3
2010-09-23 08:06:21 51°22.058 2°50.511 344.8 12.2 334 22.2
2010-09-23 08:07:21 51°22.229 2°50.327 328.1 12.6 319 22.4
2010-09-23 08:08:21 51°22.391 2°50.111 330.6 12.5 324 22.4
2010-09-23 08:09:21 51°22.562 2°49.927 334 12.1 326 20.5
2010-09-23 08:10:21 51°22.727 2°49.755 334.9 11.7 328 15.9
2010-09-23 08:11:21 51°22.89 2°49.588 334.7 11.6 327 15.3
2010-09-23 08:12:21 51°23.052 2°49.418 335 11.9 327 17.3
2010-09-23 08:13:21 51°23.216 2°49.24 335 12 325 18.9
2010-09-23 08:14:21 51°23.382 2°49.061 335 12.1 325 20.9
2010-09-23 08:15:21 51°23.549 2°48.881 335.5 12.1 327 22.1
2010-09-23 08:16:21 51°23.716 2°48.7 334.7 12.1 326 22.4
2010-09-23 08:17:21 51°23.884 2°48.519 335.4 12.2 326 22.2
2010-09-23 08:18:21 51°24.052 2°48.338 335.6 12.2 327 21.5
2010-09-23 08:19:21 51°24.223 2°48.158 335 12.3 327 21.4
2010-09-23 08:20:21 51°24.395 2°47.979 335.1 12.3 326 24.9
2010-09-23 08:21:21 51°24.566 2°47.798 335.5 12.3 327 26.7
2010-09-23 08:22:21 51°24.737 2°47.617 335.7 12.3 327 29.1
2010-09-23 08:23:21 51°24.908 2°47.433 335.4 12.4 327 30.5
2010-09-23 08:24:21 51°25.08 2°47.248 335.3 12.3 328 25
2010-09-23 08:25:21 51°25.25 2°47.069 335.1 12.2 327 24.4
2010-09-23 08:26:21 51°25.42 2°46.894 335.2 12.1 328 24.6
2010-09-23 08:27:21 51°25.59 2°46.719 334.8 12.2 327 24
2010-09-23 08:28:21 51°25.76 2°46.551 339.3 11.9 332 22.7
2010-09-23 08:29:21 51°25.936 2°46.407 341 11.9 333 24.3
2010-09-23 08:30:21 51°26.113 2°46.261 340.3 11.9 333 24.5
2010-09-23 08:31:21 51°26.29 2°46.115 339.9 12.1 332 26
2010-09-23 08:32:20 51°26.464 2°45.968 340.7 12 333 27.4
2010-09-23 08:33:21 51°26.643 2°45.813 340.5 12.1 331 28.3
2010-09-23 08:34:21 51°26.819 2°45.658 339.8 12.2 331 29.6
2010-09-23 08:35:21 51°26.997 2°45.499 340.2 12.3 330 28
2010-09-23 08:36:21 51°27.173 2°45.341 340.6 12.1 331 27.9
2010-09-23 08:37:21 51°27.351 2°45.183 340.4 12.3 331 27.8
2010-09-23 08:38:21 51°27.529 2°45.026 340.7 12.3 331 25.3
2010-09-23 08:39:21 51°27.709 2°44.871 340.3 12.2 333 27.4
2010-09-23 08:40:21 51°27.891 2°44.723 340.9 12.2 334 27.4
2010-09-23 08:41:20 51°28.067 2°44.576 339.9 12.2 332 25.6
2010-09-23 08:42:21 51°28.252 2°44.433 342 12 335 28
2010-09-23 08:43:20 51°28.431 2°44.3 341.7 12.1 336 29.9
2010-09-23 08:44:21 51°28.615 2°44.161 341.4 11.9 336 27.6
2010-09-23 08:45:21 51°28.797 2°44.028 341.1 12 334 28.9
2010-09-23 08:46:20 51°28.974 2°43.896 341.9 11.9 335 29
2010-09-23 08:47:21 51°29.156 2°43.757 341.6 11.9 335 28.9
2010-09-23 08:48:20 51°29.33 2°43.619 341.3 11.9 333 29.7
2010-09-23 08:49:21 51°29.509 2°43.47 341.6 11.9 332 30.2
2010-09-23 08:50:20 51°29.687 2°43.372 1.6 11.2 -999 31
2010-09-23 08:51:20 51°29.874 2°43.384 10.3 11.2 3 31.1
2010-09-23 08:52:20 51°30.056 2°43.434 19.3 11 16 31.1
2010-09-23 08:53:21 51°30.234 2°43.518 20.1 11 16 32.4
2010-09-23 08:54:21 51°30.41 2°43.599 21.1 11 16 32.1
2010-09-23 08:55:20 51°30.581 2°43.679 20.5 10.8 17 32.2
2010-09-23 08:56:21 51°30.755 2°43.776 25.5 10.9 22 29.8
2010-09-23 08:57:20 51°30.923 2°43.884 25.5 11.6 22 29.9
2010-09-23 08:58:21 51°31.109 2°43.997 25.5 11.9 20 34.8
2010-09-23 08:59:20 51°31.29 2°44.109 25.5 12 20 34.9
2010-09-23 09:00:21 51°31.48 2°44.223 25.5 11.9 22 33.2
2010-09-23 09:01:21 51°31.666 2°44.335 25.9 12 21 34.4
2010-09-23 09:02:21 51°31.851 2°44.448 25.5 11.9 20 33.3
2010-09-23 09:03:21 51°32.037 2°44.557 25.5 11.9 20 34.3
2010-09-23 09:04:21 51°32.222 2°44.666 25.6 11.9 19 34.1
2010-09-23 09:05:21 51°32.407 2°44.774 25.2 11.9 21 34
2010-09-23 09:06:21 51°32.592 2°44.886 25.1 12 20 32.9
2010-09-23 09:07:21 51°32.778 2°45.001 25.5 12 21 31.1
2010-09-23 09:08:21 51°32.964 2°45.118 25 12 22 29.5
2010-09-23 09:09:21 51°33.152 2°45.232 21.5 12.1 17 31
2010-09-23 09:10:21 51°33.351 2°45.269 6.7 12.2 -999 30.3
2010-09-23 09:11:21 51°33.555 2°45.277 6.5 12.1 4 30.6
2010-09-23 09:12:20 51°33.755 2°45.286 6.6 12.1 3 28.7
2010-09-23 09:13:21 51°33.961 2°45.303 7.7 12.1 1 26.5
2010-09-23 09:14:21 51°34.164 2°45.321 8.6 12.1 3 20.3
2010-09-23 09:15:20 51°34.361 2°45.338 8 12 5 13.4
2010-09-23 09:16:21 51°34.558 2°45.405 22 11.9 18 13.8
2010-09-23 09:17:20 51°34.746 2°45.488 19.1 11.9 15 15.9
2010-09-23 09:18:21 51°34.942 2°45.577 21.3 12.1 16 14.4
2010-09-23 09:19:21 51°35.134 2°45.675 23.4 12.1 19 16.6
2010-09-23 09:20:21 51°35.321 2°45.789 25.6 12 21 17.9
2010-09-23 09:21:21 51°35.511 2°45.894 22.9 12.1 18 19.1
2010-09-23 09:22:21 51°35.703 2°45.997 22.7 12.1 16 19.7
2010-09-23 09:23:21 51°35.893 2°46.108 25.2 12 22 20.8
2010-09-23 09:24:21 51°36.08 2°46.226 26.3 12.2 22 20.7
2010-09-23 09:25:21 51°36.268 2°46.348 25.4 12.2 20 20.6
2010-09-23 09:26:21 51°36.459 2°46.459 24.6 12.3 21 23.3
2010-09-23 09:27:21 51°36.649 2°46.579 24.6 12.4 22 22.1
2010-09-23 09:28:20 51°36.837 2°46.693 25 12.3 19 22.8
2010-09-23 09:29:21 51°37.033 2°46.804 23.2 12.3 19 22
2010-09-23 09:30:21 51°37.224 2°46.929 26 12.3 23 23.2
2010-09-23 09:31:20 51°37.413 2°47.043 24 12.2 20 22.9
2010-09-23 09:32:21 51°37.61 2°47.155 23.2 12.4 21 21.4
2010-09-23 09:33:20 51°37.799 2°47.265 23 12.2 20 22.2
2010-09-23 09:34:21 51°37.995 2°47.373 21.9 12.4 18 22.4
2010-09-23 09:35:20 51°38.183 2°47.49 24.8 12.1 20 19.8
2010-09-23 09:36:21 51°38.376 2°47.601 23.9 12.2 21 19.4
2010-09-23 09:37:20 51°38.562 2°47.719 23 12.3 21 22.1
2010-09-23 09:38:21 51°38.755 2°47.834 25.4 12.1 22 23.1
2010-09-23 09:39:21 51°38.948 2°47.945 22 12.3 21 23.7
2010-09-23 09:40:21 51°39.137 2°48.066 24.9 12.3 21 24.3
2010-09-23 09:41:21 51°39.327 2°48.177 22.8 12 18 23.1
2010-09-23 09:42:21 51°39.517 2°48.293 26.1 12.3 23 24.7
2010-09-23 09:43:21 51°39.707 2°48.407 22.6 12.3 21 23.3
2010-09-23 09:44:21 51°39.894 2°48.532 24.5 12.2 23 18.9
2010-09-23 09:45:21 51°40.08 2°48.654 24.2 12.1 23 21.2
2010-09-23 09:46:21 51°40.267 2°48.772 24 12.5 23 24.3
2010-09-23 09:47:21 51°40.459 2°48.889 25.5 12.4 21 23.7
2010-09-23 09:48:21 51°40.65 2°49.003 22.4 12.2 21 26.7
2010-09-23 09:49:21 51°40.842 2°49.125 25.5 12.4 24 25.8
2010-09-23 09:50:21 51°41.031 2°49.242 20.9 12.3 20 22.7
2010-09-23 09:51:20 51°41.219 2°49.358 22.6 12.2 20 29.1
2010-09-23 09:52:21 51°41.412 2°49.476 21.4 12.2 19 30.8
2010-09-23 09:53:20 51°41.601 2°49.577 17 12.2 13 29.6
2010-09-23 09:54:21 51°41.807 2°49.563 347 12.7 338 27
2010-09-23 09:55:20 51°41.995 2°49.423 338.6 12.7 333 28.7
2010-09-23 09:56:21 51°42.153 2°49.182 312.9 13.2 306 26.6
2010-09-23 09:57:21 51°42.274 2°48.888 303.7 13.5 299 26.1
2010-09-23 09:58:21 51°42.375 2°48.569 301 13.2 297 28.6
2010-09-23 09:59:21 51°42.384 2°48.218 256.4 13.1 249 27.7
2010-09-23 10:00:21 51°42.254 2°47.977 211.4 11.9 211 29.8
2010-09-23 10:01:21 51°42.068 2°47.87 192.1 12 196 28.8
2010-09-23 10:02:20 51°41.879 2°47.776 195.2 12.1 197 33.9
2010-09-23 10:03:21 51°41.685 2°47.677 196.1 11.9 199 33.2
2010-09-23 10:04:20 51°41.499 2°47.57 197.6 12.1 200 31.8
2010-09-23 10:05:21 51°41.307 2°47.458 199.2 12.1 201 30
2010-09-23 10:06:20 51°41.124 2°47.337 200.3 12.1 202 31.6
2010-09-23 10:07:21 51°40.936 2°47.212 200.3 12.1 202 34.2
2010-09-23 10:08:21 51°40.75 2°47.089 200.3 12 202 34.4
2010-09-23 10:09:21 51°40.563 2°46.973 198.2 12 200 34.3
2010-09-23 10:10:21 51°40.375 2°46.863 198.2 12 199 34.4
2010-09-23 10:11:20 51°40.19 2°46.753 198.3 12 200 31.2
2010-09-23 10:12:21 51°40 2°46.641 198.7 11.9 200 33.2
2010-09-23 10:13:20 51°39.816 2°46.534 198.3 12 200 34.7
2010-09-23 10:14:20 51°39.629 2°46.425 198.2 12 199 35.7
2010-09-23 10:15:20 51°39.442 2°46.315 198.7 11.9 200 36.1
2010-09-23 10:16:20 51°39.255 2°46.205 198.2 11.9 200 33.7
2010-09-23 10:17:21 51°39.065 2°46.094 198.5 12 200 32.5
2010-09-23 10:18:21 51°38.878 2°45.983 199 11.9 200 35.1
2010-09-23 10:19:21 51°38.691 2°45.875 199 11.9 201 36.5
2010-09-23 10:20:20 51°38.506 2°45.77 198.7 11.9 200 36.2
2010-09-23 10:21:21 51°38.317 2°45.66 198.4 11.9 200 35.4
2010-09-23 10:22:20 51°38.134 2°45.554 199 11.9 200 35.8
2010-09-23 10:23:21 51°37.944 2°45.444 198.6 11.9 200 33.4
2010-09-23 10:24:20 51°37.763 2°45.338 198.2 11.9 199 36.7
2010-09-23 10:25:21 51°37.572 2°45.23 197.6 11.8 200 35.7
2010-09-23 10:26:20 51°37.391 2°45.124 198.4 11.8 201 36.1
2010-09-23 10:27:20 51°37.206 2°45.015 198.4 11.8 200 35.7
2010-09-23 10:28:21 51°37.02 2°44.906 198 11.8 200 37.8
2010-09-23 10:29:20 51°36.84 2°44.8 198.4 11.7 200 36.8
2010-09-23 10:30:21 51°36.654 2°44.691 197.8 11.7 201 38
2010-09-23 10:31:20 51°36.474 2°44.586 198.2 11.7 200 36.6
2010-09-23 10:32:20 51°36.291 2°44.478 198.2 11.7 201 38.7
2010-09-23 10:33:20 51°36.108 2°44.367 198.3 11.7 200 37.6
2010-09-23 10:34:21 51°35.922 2°44.257 197.7 11.7 201 38.4
2010-09-23 10:35:21 51°35.741 2°44.147 198.4 11.6 200 35.8
2010-09-23 10:36:21 51°35.56 2°44.038 198.4 11.6 201 37.8
2010-09-23 10:37:21 51°35.379 2°43.929 197.9 11.6 200 38.2
2010-09-23 10:38:20 51°35.201 2°43.822 198.4 11.5 200 37.5
2010-09-23 10:39:21 51°35.018 2°43.712 198.2 11.5 201 38.9
2010-09-23 10:40:20 51°34.84 2°43.607 198.5 11.6 201 38
2010-09-23 10:41:21 51°34.657 2°43.497 198.4 11.5 200 38.1
2010-09-23 10:42:20 51°34.48 2°43.391 198.7 11.5 201 37.8
2010-09-23 10:43:21 51°34.298 2°43.282 198.2 11.5 200 38.1
2010-09-23 10:44:21 51°34.117 2°43.176 198.7 11.5 200 36.8
2010-09-23 10:45:21 51°33.938 2°43.072 198.2 11.5 200 37.9
2010-09-23 10:46:21 51°33.758 2°42.967 198.8 11.5 200 33.8
2010-09-23 10:47:20 51°33.583 2°42.864 198.2 11.5 200 36.5
2010-09-23 10:48:21 51°33.401 2°42.76 198.8 11.3 199 34.5
2010-09-23 10:49:20 51°33.226 2°42.658 198.8 11.4 200 33.2
2010-09-23 10:50:21 51°33.045 2°42.554 197.8 11.3 199 32
2010-09-23 10:51:20 51°32.871 2°42.455 198 11.3 199 34.8
2010-09-23 10:52:21 51°32.691 2°42.354 198.6 11.3 200 35.2
2010-09-23 10:53:20 51°32.515 2°42.255 198.1 11.4 199 35.1
2010-09-23 10:54:21 51°32.334 2°42.153 198.2 11.3 200 34.1
2010-09-23 10:55:21 51°32.158 2°42.055 198.4 11.2 199 35
2010-09-23 10:56:20 51°31.985 2°41.958 198.4 11.2 199 35.4
2010-09-23 10:57:21 51°31.813 2°41.843 213.2 10.8 220 35.2
2010-09-23 10:58:20 51°31.766 2°41.578 265.3 11 268 36.1
2010-09-23 10:59:21 51°31.768 2°41.276 269.1 11.2 271 37.3
2010-09-23 11:00:20 51°31.772 2°40.982 268.5 11.2 273 37.7
2010-09-23 11:01:21 51°31.778 2°40.679 269.7 11.2 271 37.7
2010-09-23 11:02:20 51°31.784 2°40.387 269.9 11.2 273 38
2010-09-23 11:03:21 51°31.791 2°40.084 269.5 11.2 273 39.4
2010-09-23 11:04:21 51°31.807 2°39.788 280.1 11 290 40.5
2010-09-23 11:05:20 51°31.955 2°39.635 343.1 11.5 346 39.3
2010-09-23 11:06:21 51°32.148 2°39.577 348.2 11.6 350 38.6
2010-09-23 11:07:21 51°32.34 2°39.532 348.5 11.7 350 39.1
2010-09-23 11:08:21 51°32.536 2°39.537 12.9 11.7 14 38.5
2010-09-23 11:09:20 51°32.717 2°39.661 24.8 12 27 38.6
2010-09-23 11:10:21 51°32.891 2°39.837 37.4 12.3 38 39.8
2010-09-23 11:11:20 51°33.032 2°40.066 47.5 12.2 50 40.2
2010-09-23 11:12:21 51°33.165 2°40.308 46.4 11.8 46 40.1
2010-09-23 11:13:21 51°33.295 2°40.543 46.8 11.7 47 40.9
2010-09-23 11:14:20 51°33.432 2°40.755 37 11.8 38 40.1
2010-09-23 11:15:21 51°33.606 2°40.904 15.7 11.4 18 41.4
2010-09-23 11:16:21 51°33.796 2°40.964 6.3 11.6 10 41.4
2010-09-23 11:17:21 51°33.985 2°41.026 13.1 11.6 15 40.6
2010-09-23 11:18:20 51°34.166 2°41.123 19.1 11.7 24 39.6
2010-09-23 11:19:21 51°34.351 2°41.251 21.3 11.8 22 41
2010-09-23 11:20:20 51°34.53 2°41.369 19.1 11.7 22 41.1
2010-09-23 11:21:20 51°34.711 2°41.492 20 11.8 22 41.9
2010-09-23 11:22:21 51°34.898 2°41.619 20.4 12.1 24 42.8
2010-09-23 11:23:21 51°35.081 2°41.74 21.2 11.6 21 40.6
2010-09-23 11:24:21 51°35.267 2°41.715 341.9 11.5 347 41
2010-09-23 11:25:21 51°35.453 2°41.631 339.5 11.7 344 41.2
2010-09-23 11:26:21 51°35.638 2°41.55 339.6 11.5 346 39.4
2010-09-23 11:27:20 51°35.824 2°41.49 356.2 11.7 5 36.4
2010-09-23 11:28:21 51°36.019 2°41.57 13.4 12 17 34.8
2010-09-23 11:29:20 51°36.206 2°41.669 16.7 12 21 35
2010-09-23 11:30:20 51°36.393 2°41.792 18.8 11.9 22 35.2
2010-09-23 11:31:21 51°36.583 2°41.919 20 12.2 23 37.1
2010-09-23 11:32:20 51°36.765 2°42.038 20.4 12.2 23 37.3
2010-09-23 11:33:21 51°36.953 2°42.162 21.6 12.1 22 37.2
2010-09-23 11:34:20 51°37.136 2°42.276 21.1 11.9 22 37
2010-09-23 11:35:21 51°37.317 2°42.426 26.9 12.2 27 38.2
2010-09-23 11:36:20 51°37.493 2°42.573 26.3 12.3 30 38.4
2010-09-23 11:37:21 51°37.677 2°42.724 26.5 12.3 27 37.4
2010-09-23 11:38:20 51°37.854 2°42.873 27.3 12 29 38.4
2010-09-23 11:39:20 51°38.033 2°43.021 26.9 12 27 38.9
2010-09-23 11:40:21 51°38.217 2°43.172 26.6 12.2 27 39.3
2010-09-23 11:41:20 51°38.396 2°43.318 26.9 12.3 27 38
2010-09-23 11:42:21 51°38.58 2°43.467 26.1 12.2 27 37.5
2010-09-23 11:43:21 51°38.763 2°43.613 25.8 12.5 26 38.3
2010-09-23 11:44:21 51°38.945 2°43.761 26.2 12.2 28 38.6
2010-09-23 11:45:20 51°39.123 2°43.907 26.4 12.2 26 39
2010-09-23 11:46:21 51°39.309 2°44.057 25.9 12.4 28 38.5
2010-09-23 11:47:20 51°39.489 2°44.205 25.6 12.5 26 39
2010-09-23 11:48:21 51°39.676 2°44.358 26.7 12.4 27 40
2010-09-23 11:49:21 51°39.86 2°44.506 27.3 12.3 28 40.6
2010-09-23 11:50:20 51°40.04 2°44.65 26.4 12.4 26 38
2010-09-23 11:51:21 51°40.226 2°44.802 26.2 12.4 28 40.4
2010-09-23 11:52:20 51°40.405 2°44.949 25.7 12.1 29 34.8
2010-09-23 11:53:21 51°40.592 2°45.1 27 12.2 27 37.4
2010-09-23 11:54:20 51°40.775 2°45.238 21.9 12.1 21 40.2
2010-09-23 11:55:21 51°40.97 2°45.356 20 12.2 22 39.9
2010-09-23 11:56:20 51°41.158 2°45.47 19.6 12.4 22 40.9
2010-09-23 11:57:21 51°41.349 2°45.59 20.4 12.1 21 38.2
2010-09-23 11:58:20 51°41.532 2°45.707 19.8 12 23 40.3
2010-09-23 11:59:21 51°41.721 2°45.828 20.3 12 22 41.7
2010-09-23 12:00:21 51°41.908 2°45.947 19.5 12 19 31.5
2010-09-23 12:01:21 51°42.094 2°46.07 20.5 12 22 41.2
2010-09-23 12:02:21 51°42.285 2°46.168 11.2 12 13 37.8
2010-09-23 12:03:21 51°42.478 2°46.191 349.4 11.3 351 35.6
2010-09-23 12:04:21 51°42.626 2°46.036 311 11 316 41.5
2010-09-23 12:05:21 51°42.768 2°45.817 310.7 11.9 316 36
2010-09-23 12:06:21 51°42.915 2°45.6 311.8 11.9 316 38.7
2010-09-23 12:07:19 51°43.043 2°45.374 305.7 11.9 311 41.6
2010-09-23 12:08:20 51°43.175 2°45.129 304.9 11.9 311 38.6
2010-09-23 12:09:21 51°43.306 2°44.885 301.6 11.6 302 37.2
2010-09-23 12:10:20 51°43.416 2°44.636 298 11.8 307 36
2010-09-23 12:11:20 51°43.523 2°44.375 296.2 11.5 302 35.6
2010-09-23 12:12:20 51°43.62 2°44.111 289 11.2 292 37.8
2010-09-23 12:13:20 51°43.675 2°43.825 282.1 11.2 288 39.3
2010-09-23 12:14:20 51°43.664 2°43.55 239.7 9.9 237 41.2
2010-09-23 12:15:20 51°43.519 2°43.435 196.5 10.3 195 38.2
2010-09-23 12:16:19 51°43.351 2°43.344 201.1 11.2 199 39.5
2010-09-23 12:17:20 51°43.169 2°43.242 201.7 11.4 200 40
2010-09-23 12:18:21 51°42.986 2°43.149 197.9 11.4 195 36.2
2010-09-23 12:19:20 51°42.806 2°43.071 197.7 11.3 195 40
2010-09-23 12:20:21 51°42.621 2°42.99 198.1 11.3 195 33.9
2010-09-23 12:21:20 51°42.442 2°42.914 198 11.3 195 35.1
2010-09-23 12:22:21 51°42.257 2°42.834 197.7 11.4 195 36.6
2010-09-23 12:23:19 51°42.08 2°42.756 198 11.4 195 36.8
2010-09-23 12:24:20 51°41.898 2°42.663 201.6 11.3 199 36
2010-09-23 12:25:19 51°41.723 2°42.567 201.8 11.3 199 34.8
2010-09-23 12:26:20 51°41.543 2°42.469 201.1 11.3 199 35.8
2010-09-23 12:27:20 51°41.365 2°42.372 202.1 11.3 199 35.8
2010-09-23 12:28:20 51°41.187 2°42.276 201.4 11.3 200 36.1
2010-09-23 12:29:20 51°41.008 2°42.18 201.5 11.3 198 33
2010-09-23 12:30:21 51°40.827 2°42.083 201.2 11.2 198 32.2
2010-09-23 12:31:21 51°40.65 2°41.988 201.4 11.2 198 29.8
2010-09-23 12:32:20 51°40.475 2°41.895 201.8 11.3 198 33.5
2010-09-23 12:33:20 51°40.299 2°41.803 200.7 11 198 34.8
2010-09-23 12:34:20 51°40.122 2°41.708 201.4 11.2 199 35.2
2010-09-23 12:35:20 51°39.947 2°41.613 201 11.1 198 32.3
2010-09-23 12:36:19 51°39.774 2°41.52 201.3 11.1 199 31.2
2010-09-23 12:37:20 51°39.596 2°41.423 200.7 11.1 198 26.4
2010-09-23 12:38:21 51°39.419 2°41.329 201.5 11 199 28.2
2010-09-23 12:39:20 51°39.248 2°41.241 201.8 10.9 199 25.8
2010-09-23 12:40:21 51°39.073 2°41.142 200.8 11 198 26.4
2010-09-23 12:41:20 51°38.904 2°41.046 201.1 10.9 200 29.2
2010-09-23 12:42:21 51°38.728 2°40.947 201.6 10.9 199 26.2
2010-09-23 12:43:20 51°38.558 2°40.854 201.1 10.8 200 28.4
2010-09-23 12:44:21 51°38.385 2°40.76 201.2 10.9 200 28.5
2010-09-23 12:45:20 51°38.216 2°40.666 201.4 10.9 199 28
2010-09-23 12:46:21 51°38.041 2°40.569 201.5 10.9 199 28.5
2010-09-23 12:47:20 51°37.871 2°40.475 201.6 10.9 199 28.6
2010-09-23 12:48:21 51°37.697 2°40.374 201.6 11 199 29.9
2010-09-23 12:49:20 51°37.527 2°40.277 201.3 11 199 30.3
2010-09-23 12:50:20 51°37.355 2°40.177 201.1 11.1 200 30.6
2010-09-23 12:51:20 51°37.183 2°40.075 201.3 11.1 200 31.9
2010-09-23 12:52:19 51°37.014 2°39.975 201.1 11 200 32.4
2010-09-23 12:53:20 51°36.839 2°39.869 201.3 11 200 33.1
2010-09-23 12:54:20 51°36.667 2°39.766 201.3 11 200 32.7
2010-09-23 12:55:20 51°36.496 2°39.66 201.3 11 201 32.9
2010-09-23 12:56:19 51°36.327 2°39.558 201 11 200 34.2
2010-09-23 12:57:20 51°36.153 2°39.452 201.3 11 201 35.2
2010-09-23 12:58:21 51°35.978 2°39.345 201.4 11 202 35.2
2010-09-23 12:59:19 51°35.811 2°39.244 201.2 11 200 35.7
2010-09-23 13:00:20 51°35.637 2°39.139 201.7 11 201 36.6
2010-09-23 13:01:20 51°35.466 2°39.034 201.5 11 201 37
2010-09-23 13:02:21 51°35.292 2°38.929 201.7 10.9 201 37.3
2010-09-23 13:03:20 51°35.124 2°38.826 201.3 11 202 38
2010-09-23 13:04:21 51°34.951 2°38.721 201.2 10.9 201 37.4
2010-09-23 13:05:20 51°34.784 2°38.618 201.6 10.9 201 37.8
2010-09-23 13:06:20 51°34.614 2°38.514 201.8 10.9 201 38.2
2010-09-23 13:07:20 51°34.439 2°38.432 196.5 11 195 37.3
2010-09-23 13:08:20 51°34.263 2°38.352 196.6 11 196 37.4
2010-09-23 13:09:21 51°34.085 2°38.271 197.2 10.9 196 36.3
2010-09-23 13:10:20 51°33.913 2°38.192 197.4 10.9 196 36
2010-09-23 13:11:21 51°33.737 2°38.109 197.2 10.9 196 35.8
2010-09-23 13:12:20 51°33.564 2°38.031 196.8 10.9 196 34.9
2010-09-23 13:13:20 51°33.39 2°37.951 197.5 11 197 35.6
2010-09-23 13:14:20 51°33.215 2°37.869 196.9 10.9 196 35
2010-09-23 13:15:20 51°33.041 2°37.787 197 10.9 197 34.9
2010-09-23 13:16:21 51°32.863 2°37.704 197.4 10.9 195 33.4
2010-09-23 13:17:20 51°32.691 2°37.625 197.3 10.9 196 32.3
2010-09-23 13:18:20 51°32.517 2°37.544 197.4 10.9 196 31.9
2010-09-23 13:19:20 51°32.342 2°37.464 197.5 10.9 196 33
2010-09-23 13:20:20 51°32.166 2°37.383 197.5 10.9 197 32.2
2010-09-23 13:21:20 51°31.991 2°37.301 197.4 11 197 31.4
2010-09-23 13:22:20 51°31.815 2°37.22 197.5 11 196 30.3
2010-09-23 13:23:20 51°31.64 2°37.137 197.3 11 196 29.5
2010-09-23 13:24:20 51°31.465 2°37.056 196.9 11.1 195 30.8
2010-09-23 13:25:20 51°31.289 2°36.973 196.8 10.9 196 31.9
2010-09-23 13:26:20 51°31.114 2°36.89 197.5 11 197 31.4
2010-09-23 13:27:20 51°30.939 2°36.808 197.5 11 196 31.9
2010-09-23 13:28:20 51°30.763 2°36.727 197.5 11 196 31.4
2010-09-23 13:29:20 51°30.586 2°36.647 197.2 11.1 196 31.2
2010-09-23 13:30:20 51°30.409 2°36.566 197.5 11 196 31.5
2010-09-23 13:31:20 51°30.232 2°36.486 197.8 11.1 196 31.7
2010-09-23 13:32:20 51°30.054 2°36.408 197.2 11 196 31.8
2010-09-23 13:33:20 51°29.877 2°36.329 197.3 11.1 195 33.1
2010-09-23 13:34:19 51°29.702 2°36.254 197 11 194 31
2010-09-23 13:35:20 51°29.524 2°36.178 197.3 10.9 194 32.9
2010-09-23 13:36:20 51°29.348 2°36.105 197.1 10.9 195 33.4
2010-09-23 13:37:20 51°29.17 2°36.033 197 11 194 33.2
2010-09-23 13:38:21 51°28.99 2°35.956 197.8 11 195 34.9
2010-09-23 13:39:20 51°28.814 2°35.885 196.8 11 194 27.3
2010-09-23 13:40:20 51°28.636 2°35.812 197.6 11.2 194 31.7
2010-09-23 13:41:21 51°28.452 2°35.736 198 11.3 194 33.2
2010-09-23 13:42:20 51°28.286 2°35.848 140.2 12.6 130 30.2
2010-09-23 13:43:20 51°28.144 2°36.094 140.7 12.3 134 29.3
2010-09-23 13:44:20 51°28.003 2°36.332 139.3 12.2 134 34.3
2010-09-23 13:45:21 51°27.862 2°36.576 138.6 12.2 133 37.3
2010-09-23 13:46:20 51°27.726 2°36.811 138.9 12.2 132 36.2
2010-09-23 13:47:20 51°27.588 2°37.048 139.1 12.1 132 34.3
2010-09-23 13:48:20 51°27.452 2°37.287 139.6 12.1 133 33.8
2010-09-23 13:49:20 51°27.318 2°37.529 138.9 12.1 131 33.9
2010-09-23 13:50:20 51°27.187 2°37.772 139.7 12 132 34.3
2010-09-23 13:51:20 51°27.053 2°38.011 139.3 12.1 131 34.9
2010-09-23 13:52:20 51°26.92 2°38.254 139.7 12.1 131 35.4
2010-09-23 13:53:20 51°26.788 2°38.497 140 12.1 132 34.6
2010-09-23 13:54:20 51°26.648 2°38.725 143.1 12 135 34.3
2010-09-23 13:55:20 51°26.507 2°38.951 142.8 11.9 137 34.3
2010-09-23 13:56:20 51°26.366 2°39.177 142.3 12.1 135 36.5
2010-09-23 13:57:20 51°26.223 2°39.401 142.2 12 135 39
2010-09-23 13:58:20 51°26.08 2°39.626 141.8 12.1 135 33.4
2010-09-23 13:59:20 51°25.937 2°39.851 143.1 12 136 33.2
2010-09-23 14:00:20 51°25.789 2°40.063 146 11.9 139 32.3
2010-09-23 14:01:20 51°25.639 2°40.269 145 11.9 139 31
2010-09-23 14:02:20 51°25.489 2°40.472 145.4 11.8 140 28
2010-09-23 14:03:20 51°25.338 2°40.673 145 11.9 140 29.9
2010-09-23 14:04:20 51°25.188 2°40.879 145.2 11.8 139 27.4
2010-09-23 14:05:20 51°25.04 2°41.086 144.9 11.9 137 27
2010-09-23 14:06:20 51°24.894 2°41.3 145.6 11.9 138 26.3
2010-09-23 14:07:20 51°24.748 2°41.51 145.3 11.7 139 27.7
2010-09-23 14:08:20 51°24.601 2°41.716 145.8 11.8 139 26.7
2010-09-23 14:09:20 51°24.451 2°41.922 145.1 11.9 139 28.5
2010-09-23 14:10:20 51°24.3 2°42.126 145.5 11.9 139 28.8
2010-09-23 14:11:20 51°24.153 2°42.338 142.5 12 135 25.2
2010-09-23 14:12:20 51°24.009 2°42.562 142.9 12 137 27.5
2010-09-23 14:13:20 51°23.864 2°42.785 141.6 12.1 135 29.2
2010-09-23 14:14:20 51°23.716 2°43.004 142.7 12.1 137 28
2010-09-23 14:15:20 51°23.569 2°43.229 142.5 12.2 137 27.6
2010-09-23 14:16:20 51°23.426 2°43.457 137.7 12.3 129 28.1
2010-09-23 14:17:20 51°23.299 2°43.72 132.7 12.4 128 26.9
2010-09-23 14:18:20 51°23.171 2°43.973 135.1 12.1 129 28.8
2010-09-23 14:19:20 51°23.039 2°44.211 136.2 12 131 28.4
2010-09-23 14:20:20 51°22.909 2°44.448 135.6 11.9 132 27.4
2010-09-23 14:21:20 51°22.778 2°44.685 136 11.9 132 27.5
2010-09-23 14:22:20 51°22.648 2°44.922 135.8 11.9 131 28.5
2010-09-23 14:23:20 51°22.517 2°45.157 136.3 11.9 130 27.4
2010-09-23 14:24:20 51°22.384 2°45.388 139.3 11.7 136 23.7
2010-09-23 14:25:20 51°22.242 2°45.6 142.5 11.6 138 23.3
2010-09-23 14:26:20 51°22.096 2°45.803 143.8 11.6 138 22.6
2010-09-23 14:27:20 51°21.952 2°46.012 143.2 11.7 137 23.1
2010-09-23 14:28:20 51°21.805 2°46.219 142.8 12 138 25.1
2010-09-23 14:29:20 51°21.657 2°46.43 144 11.9 139 26.5
2010-09-23 14:30:20 51°21.506 2°46.638 143.5 12.1 139 26.1
2010-09-23 14:31:20 51°21.355 2°46.854 143.1 12.2 138 25.9
2010-09-23 14:32:20 51°21.202 2°47.07 144 12.2 140 25.1
2010-09-23 14:33:20 51°21.05 2°47.28 143.5 12.1 141 22.9
2010-09-23 14:34:20 51°20.899 2°47.492 143.1 12 139 19.2
2010-09-23 14:35:20 51°20.747 2°47.697 144 11.9 140 20.7
2010-09-23 14:36:20 51°20.596 2°47.906 143.1 12 140 21.5
2010-09-23 14:37:20 51°20.445 2°48.114 143.2 12 138 22.8
2010-09-23 14:38:20 51°20.294 2°48.323 143.2 12.1 139 23.7
2010-09-23 14:39:20 51°20.143 2°48.533 143.6 12 139 23.8
2010-09-23 14:40:20 51°19.994 2°48.745 143.1 12.1 139 23.3
2010-09-23 14:41:20 51°19.843 2°48.956 143.5 11.9 140 21.1
2010-09-23 14:42:20 51°19.695 2°49.164 143 11.9 140 19.1
2010-09-23 14:43:20 51°19.544 2°49.373 143.3 12 139 16.5
2010-09-23 14:44:20 51°19.392 2°49.576 143.1 11.9 140 15.3
2010-09-23 14:45:20 51°19.241 2°49.778 143.2 12 139 13.5
2010-09-23 14:46:20 51°19.088 2°49.978 143.4 11.9 141 13
2010-09-23 14:47:20 51°18.936 2°50.182 142.9 11.9 140 14.4
2010-09-23 14:48:20 51°18.785 2°50.387 143.1 11.9 140 15.7
2010-09-23 14:49:20 51°18.636 2°50.591 143.3 11.8 139 15.8
2010-09-23 14:50:20 51°18.485 2°50.794 144.2 11.7 140 15.3
2010-09-23 14:51:20 51°18.335 2°51 142.7 11.8 138 14.6
2010-09-23 14:52:21 51°18.184 2°51.208 143.2 11.8 139 13.9
2010-09-23 14:53:20 51°18.038 2°51.408 143.5 11.8 139 12.6
2010-09-23 14:54:20 51°17.889 2°51.61 143.4 11.7 141 11.6
2010-09-23 14:55:20 51°17.733 2°51.794 147.1 11.6 145 11.5
2010-09-23 14:56:20 51°17.574 2°51.973 147.4 11.7 145 11.8
2010-09-23 14:57:20 51°17.412 2°52.148 149.6 11.7 147 12.5
2010-09-23 14:58:20 51°17.249 2°52.316 150.9 11.6 149 11.7
2010-09-23 14:59:20 51°17.082 2°52.472 153 11.6 151 11.2
2010-09-23 15:00:20 51°16.913 2°52.618 154.8 11.6 152 11.1
2010-09-23 15:01:20 51°16.742 2°52.764 154.4 11.7 152 11.4
2010-09-23 15:02:19 51°16.573 2°52.91 154.7 11.9 152 12.9
2010-09-23 15:03:20 51°16.396 2°53.057 155 11.8 151 13.2
2010-09-23 15:04:19 51°16.225 2°53.203 156.5 11.7 154 13
2010-09-23 15:05:20 51°16.045 2°53.338 156.8 11.9 155 12.9
2010-09-23 15:06:20 51°15.868 2°53.476 154.6 11.8 152 12.7
2010-09-23 15:07:20 51°15.701 2°53.645 145.2 11.9 145 12.6
2010-09-23 15:08:20 51°15.538 2°53.83 145.2 12 145 12.2
2010-09-23 15:09:20 51°15.375 2°54.012 146.3 11.9 145 11.9
2010-09-23 15:10:20 51°15.214 2°54.199 143.7 12 143 11.5
2010-09-23 15:11:20 51°15.056 2°54.39 143.9 12 142 11.2
2010-09-23 15:12:19 51°14.901 2°54.583 145 12 143 12.8
2010-09-23 15:13:20 51°14.737 2°54.772 145.2 11.9 145 12.5
2010-09-23 15:14:19 51°14.577 2°54.945 145.4 11.9 148 12.5
2010-09-23 15:15:20 51°14.409 2°55.124 143.1 12 145 11.1
2010-09-23 15:16:20 51°14.253 2°55.294 144.4 10.6 146 11.1
2010-09-23 15:17:20 51°14.12 2°55.414 152.3 8.3 154 11.3
2010-09-23 15:18:19 51°14.003 2°55.5 154.2 6.9 155 11.4
2010-09-23 15:19:20 51°13.904 2°55.573 153.9 6.3 154 11.6
2010-09-23 15:20:19 51°13.812 2°55.644 148.8 6.2 148 12.4
2010-09-23 15:21:20 51°13.742 2°55.748 130 5.2 131 11.9
2010-09-23 15:22:24 51°13.691 2°55.851 119.6 4.1 124 -999
2010-09-23 15:23:24 51°13.668 2°55.941 113.8 3.1 114 -999